sensor_id;sensor_type;location;lat;lon;timestamp;pressure;altitude;pressure_sealevel;temperature;humidity
63281;BME280;49406;51.044;3.766;2023-12-14T00:02:26;101013.22;;;10.01;100.00
63281;BME280;49406;51.044;3.766;2023-12-14T00:05:00;101019.99;;;9.98;100.00
63281;BME280;49406;51.044;3.766;2023-12-14T00:07:35;101027.08;;;9.92;100.00
63281;BME280;49406;51.044;3.766;2023-12-14T00:10:10;101026.87;;;9.90;100.00
63281;BME280;49406;51.044;3.766;2023-12-14T00:12:45;101037.29;;;9.99;100.00
63281;BME280;49406;51.044;3.766;2023-12-14T00:15:22;101047.80;;;10.01;100.00
63281;BME280;49406;51.044;3.766;2023-12-14T00:17:56;101051.27;;;9.99;100.00
63281;BME280;49406;51.044;3.766;2023-12-14T00:20:31;101058.42;;;9.98;100.00
63281;BME280;49406;51.044;3.766;2023-12-14T00:23:06;101059.61;;;9.96;100.00
63281;BME280;49406;51.044;3.766;2023-12-14T00:25:40;101065.17;;;9.94;100.00
63281;BME280;49406;51.044;3.766;2023-12-14T00:28:15;101070.02;;;9.91;100.00
63281;BME280;49406;51.044;3.766;2023-12-14T00:30:49;101070.50;;;9.89;100.00
63281;BME280;49406;51.044;3.766;2023-12-14T00:33:24;101078.67;;;9.86;100.00
63281;BME280;49406;51.044;3.766;2023-12-14T00:35:58;101084.38;;;9.81;100.00
63281;BME280;49406;51.044;3.766;2023-12-14T00:38:33;101090.45;;;9.79;100.00
63281;BME280;49406;51.044;3.766;2023-12-14T00:41:08;101095.99;;;9.76;100.00
63281;BME280;49406;51.044;3.766;2023-12-14T00:43:42;101105.16;;;9.72;100.00
63281;BME280;49406;51.044;3.766;2023-12-14T00:46:17;101114.88;;;9.67;100.00
63281;BME280;49406;51.044;3.766;2023-12-14T00:48:52;101122.30;;;9.62;100.00
63281;BME280;49406;51.044;3.766;2023-12-14T00:51:26;101134.52;;;9.61;100.00
63281;BME280;49406;51.044;3.766;2023-12-14T00:54:01;101145.92;;;9.56;100.00
63281;BME280;49406;51.044;3.766;2023-12-14T00:56:36;101152.56;;;9.46;100.00
63281;BME280;49406;51.044;3.766;2023-12-14T00:59:10;101149.48;;;9.40;100.00
63281;BME280;49406;51.044;3.766;2023-12-14T01:01:45;101155.76;;;9.39;100.00
63281;BME280;49406;51.044;3.766;2023-12-14T01:04:20;101169.89;;;9.29;100.00
63281;BME280;49406;51.044;3.766;2023-12-14T01:06:54;101177.30;;;9.15;100.00
63281;BME280;49406;51.044;3.766;2023-12-14T01:09:29;101182.48;;;9.05;100.00
63281;BME280;49406;51.044;3.766;2023-12-14T01:12:04;101185.41;;;8.93;100.00
63281;BME280;49406;51.044;3.766;2023-12-14T01:14:39;101191.56;;;8.96;100.00
63281;BME280;49406;51.044;3.766;2023-12-14T01:17:13;101194.91;;;8.89;100.00
63281;BME280;49406;51.044;3.766;2023-12-14T01:19:48;101201.35;;;8.81;100.00
63281;BME280;49406;51.044;3.766;2023-12-14T01:22:23;101205.84;;;8.78;100.00
63281;BME280;49406;51.044;3.766;2023-12-14T01:24:57;101215.49;;;8.82;100.00
63281;BME280;49406;51.044;3.766;2023-12-14T01:27:32;101218.30;;;8.82;100.00
63281;BME280;49406;51.044;3.766;2023-12-14T01:30:08;101225.63;;;8.82;100.00
63281;BME280;49406;51.044;3.766;2023-12-14T01:32:43;101234.30;;;8.80;100.00
63281;BME280;49406;51.044;3.766;2023-12-14T01:35:18;101240.55;;;8.79;100.00
63281;BME280;49406;51.044;3.766;2023-12-14T01:37:52;101248.29;;;8.73;100.00
63281;BME280;49406;51.044;3.766;2023-12-14T01:40:27;101253.27;;;8.71;100.00
63281;BME280;49406;51.044;3.766;2023-12-14T01:43:11;101257.55;;;8.67;100.00
63281;BME280;49406;51.044;3.766;2023-12-14T01:45:45;101256.27;;;8.65;100.00
63281;BME280;49406;51.044;3.766;2023-12-14T01:48:20;101259.95;;;8.65;100.00
63281;BME280;49406;51.044;3.766;2023-12-14T01:50:54;101264.80;;;8.56;100.00
63281;BME280;49406;51.044;3.766;2023-12-14T01:53:29;101268.89;;;8.53;100.00
63281;BME280;49406;51.044;3.766;2023-12-14T01:56:05;101279.20;;;8.54;100.00
63281;BME280;49406;51.044;3.766;2023-12-14T01:58:39;101284.23;;;8.54;100.00
63281;BME280;49406;51.044;3.766;2023-12-14T02:01:19;101289.41;;;8.51;100.00
63281;BME280;49406;51.044;3.766;2023-12-14T02:03:56;101297.39;;;8.49;100.00
63281;BME280;49406;51.044;3.766;2023-12-14T02:06:30;101302.08;;;8.49;100.00
63281;BME280;49406;51.044;3.766;2023-12-14T02:09:05;101305.65;;;8.45;100.00
63281;BME280;49406;51.044;3.766;2023-12-14T02:11:40;101310.89;;;8.45;100.00
63281;BME280;49406;51.044;3.766;2023-12-14T02:14:14;101317.16;;;8.45;100.00
63281;BME280;49406;51.044;3.766;2023-12-14T02:16:49;101315.41;;;8.32;100.00
63281;BME280;49406;51.044;3.766;2023-12-14T02:19:24;101323.06;;;8.25;100.00
63281;BME280;49406;51.044;3.766;2023-12-14T02:21:58;101324.80;;;8.18;100.00
63281;BME280;49406;51.044;3.766;2023-12-14T02:24:33;101322.63;;;8.14;100.00
63281;BME280;49406;51.044;3.766;2023-12-14T02:27:07;101325.63;;;8.09;100.00
63281;BME280;49406;51.044;3.766;2023-12-14T02:29:42;101333.81;;;8.03;100.00
63281;BME280;49406;51.044;3.766;2023-12-14T02:32:16;101330.21;;;7.98;100.00
63281;BME280;49406;51.044;3.766;2023-12-14T02:34:51;101334.20;;;7.97;100.00
63281;BME280;49406;51.044;3.766;2023-12-14T02:37:26;101340.23;;;7.95;100.00
63281;BME280;49406;51.044;3.766;2023-12-14T02:40:00;101346.92;;;7.92;100.00
63281;BME280;49406;51.044;3.766;2023-12-14T02:42:35;101343.09;;;7.91;100.00
63281;BME280;49406;51.044;3.766;2023-12-14T02:45:12;101356.56;;;7.88;100.00
63281;BME280;49406;51.044;3.766;2023-12-14T02:47:46;101358.70;;;7.83;100.00
63281;BME280;49406;51.044;3.766;2023-12-14T02:50:23;101362.56;;;7.84;100.00
63281;BME280;49406;51.044;3.766;2023-12-14T02:52:57;101367.08;;;7.84;100.00
63281;BME280;49406;51.044;3.766;2023-12-14T02:55:32;101364.94;;;7.82;100.00
63281;BME280;49406;51.044;3.766;2023-12-14T02:58:07;101376.48;;;7.84;100.00
63281;BME280;49406;51.044;3.766;2023-12-14T03:00:41;101381.30;;;7.82;100.00
63281;BME280;49406;51.044;3.766;2023-12-14T03:03:16;101386.02;;;7.76;100.00
63281;BME280;49406;51.044;3.766;2023-12-14T03:05:50;101390.65;;;7.74;100.00
63281;BME280;49406;51.044;3.766;2023-12-14T03:08:25;101393.35;;;7.77;100.00
63281;BME280;49406;51.044;3.766;2023-12-14T03:10:58;101399.08;;;7.76;100.00
63281;BME280;49406;51.044;3.766;2023-12-14T03:13:33;101399.04;;;7.75;100.00
63281;BME280;49406;51.044;3.766;2023-12-14T03:16:08;101401.21;;;7.72;100.00
63281;BME280;49406;51.044;3.766;2023-12-14T03:18:43;101403.30;;;7.67;100.00
63281;BME280;49406;51.044;3.766;2023-12-14T03:21:18;101407.22;;;7.63;100.00
63281;BME280;49406;51.044;3.766;2023-12-14T03:23:52;101414.48;;;7.62;100.00
63281;BME280;49406;51.044;3.766;2023-12-14T03:26:27;101416.75;;;7.62;100.00
63281;BME280;49406;51.044;3.766;2023-12-14T03:29:01;101418.61;;;7.66;100.00
63281;BME280;49406;51.044;3.766;2023-12-14T03:31:36;101422.28;;;7.67;100.00
63281;BME280;49406;51.044;3.766;2023-12-14T03:34:11;101436.41;;;7.68;100.00
63281;BME280;49406;51.044;3.766;2023-12-14T03:36:46;101436.61;;;7.69;100.00
63281;BME280;49406;51.044;3.766;2023-12-14T03:39:20;101440.08;;;7.68;100.00
63281;BME280;49406;51.044;3.766;2023-12-14T03:41:55;101446.21;;;7.64;100.00
63281;BME280;49406;51.044;3.766;2023-12-14T03:44:29;101447.34;;;7.67;100.00
63281;BME280;49406;51.044;3.766;2023-12-14T03:47:04;101451.48;;;7.71;100.00
63281;BME280;49406;51.044;3.766;2023-12-14T03:49:39;101449.67;;;7.69;100.00
63281;BME280;49406;51.044;3.766;2023-12-14T03:52:14;101459.54;;;7.67;100.00
63281;BME280;49406;51.044;3.766;2023-12-14T03:54:49;101460.57;;;7.61;100.00
63281;BME280;49406;51.044;3.766;2023-12-14T03:57:23;101465.73;;;7.58;100.00
63281;BME280;49406;51.044;3.766;2023-12-14T03:59:58;101462.31;;;7.61;100.00
63281;BME280;49406;51.044;3.766;2023-12-14T04:02:32;101468.45;;;7.63;100.00
63281;BME280;49406;51.044;3.766;2023-12-14T04:05:07;101471.02;;;7.61;100.00
63281;BME280;49406;51.044;3.766;2023-12-14T04:07:42;101477.71;;;7.64;100.00
63281;BME280;49406;51.044;3.766;2023-12-14T04:10:17;101480.30;;;7.63;100.00
63281;BME280;49406;51.044;3.766;2023-12-14T04:12:51;101488.98;;;7.62;100.00
63281;BME280;49406;51.044;3.766;2023-12-14T04:15:26;101496.02;;;7.59;100.00
63281;BME280;49406;51.044;3.766;2023-12-14T04:18:00;101498.98;;;7.66;100.00
63281;BME280;49406;51.044;3.766;2023-12-14T04:20:35;101506.04;;;7.69;100.00
63281;BME280;49406;51.044;3.766;2023-12-14T04:23:10;101513.44;;;7.65;100.00
63281;BME280;49406;51.044;3.766;2023-12-14T04:25:44;101514.52;;;7.67;100.00
63281;BME280;49406;51.044;3.766;2023-12-14T04:28:19;101520.84;;;7.68;100.00
63281;BME280;49406;51.044;3.766;2023-12-14T04:30:54;101530.04;;;7.68;100.00
63281;BME280;49406;51.044;3.766;2023-12-14T04:33:28;101543.15;;;7.70;100.00
63281;BME280;49406;51.044;3.766;2023-12-14T04:36:03;101551.55;;;7.66;100.00
63281;BME280;49406;51.044;3.766;2023-12-14T04:38:38;101561.47;;;7.71;100.00
63281;BME280;49406;51.044;3.766;2023-12-14T04:41:13;101567.60;;;7.77;100.00
63281;BME280;49406;51.044;3.766;2023-12-14T04:43:47;101582.63;;;7.74;100.00
63281;BME280;49406;51.044;3.766;2023-12-14T04:46:22;101591.69;;;7.74;100.00
63281;BME280;49406;51.044;3.766;2023-12-14T04:48:56;101597.98;;;7.70;100.00
63281;BME280;49406;51.044;3.766;2023-12-14T04:51:31;101596.49;;;7.67;100.00
63281;BME280;49406;51.044;3.766;2023-12-14T04:54:05;101599.35;;;7.64;100.00
63281;BME280;49406;51.044;3.766;2023-12-14T04:56:39;101596.83;;;7.66;100.00
63281;BME280;49406;51.044;3.766;2023-12-14T04:59:14;101599.42;;;7.72;100.00
63281;BME280;49406;51.044;3.766;2023-12-14T05:01:49;101601.75;;;7.73;100.00
63281;BME280;49406;51.044;3.766;2023-12-14T05:04:24;101604.20;;;7.74;100.00
63281;BME280;49406;51.044;3.766;2023-12-14T05:06:58;101610.51;;;7.74;100.00
63281;BME280;49406;51.044;3.766;2023-12-14T05:09:33;101612.45;;;7.71;100.00
63281;BME280;49406;51.044;3.766;2023-12-14T05:12:08;101617.98;;;7.70;100.00
63281;BME280;49406;51.044;3.766;2023-12-14T05:14:42;101617.64;;;7.64;100.00
63281;BME280;49406;51.044;3.766;2023-12-14T05:17:17;101622.92;;;7.66;100.00
63281;BME280;49406;51.044;3.766;2023-12-14T05:19:52;101627.65;;;7.62;100.00
63281;BME280;49406;51.044;3.766;2023-12-14T05:22:26;101631.46;;;7.61;100.00
63281;BME280;49406;51.044;3.766;2023-12-14T05:25:01;101629.61;;;7.63;100.00
63281;BME280;49406;51.044;3.766;2023-12-14T05:27:35;101628.10;;;7.59;100.00
63281;BME280;49406;51.044;3.766;2023-12-14T05:30:11;101634.42;;;7.56;100.00
63281;BME280;49406;51.044;3.766;2023-12-14T05:32:46;101637.02;;;7.55;100.00
63281;BME280;49406;51.044;3.766;2023-12-14T05:35:20;101636.15;;;7.66;100.00
63281;BME280;49406;51.044;3.766;2023-12-14T05:37:55;101641.91;;;7.66;100.00
63281;BME280;49406;51.044;3.766;2023-12-14T05:40:30;101649.44;;;7.68;100.00
63281;BME280;49406;51.044;3.766;2023-12-14T05:43:05;101653.14;;;7.70;100.00
63281;BME280;49406;51.044;3.766;2023-12-14T05:45:40;101658.33;;;7.69;100.00
63281;BME280;49406;51.044;3.766;2023-12-14T05:48:14;101662.05;;;7.65;100.00
63281;BME280;49406;51.044;3.766;2023-12-14T05:50:50;101676.28;;;7.64;100.00
63281;BME280;49406;51.044;3.766;2023-12-14T05:53:25;101683.55;;;7.63;100.00
63281;BME280;49406;51.044;3.766;2023-12-14T05:56:00;101692.34;;;7.66;100.00
63281;BME280;49406;51.044;3.766;2023-12-14T05:58:35;101686.98;;;7.72;100.00
63281;BME280;49406;51.044;3.766;2023-12-14T06:01:09;101687.23;;;7.69;100.00
63281;BME280;49406;51.044;3.766;2023-12-14T06:03:44;101686.50;;;7.68;100.00
63281;BME280;49406;51.044;3.766;2023-12-14T06:06:19;101685.19;;;7.65;100.00
63281;BME280;49406;51.044;3.766;2023-12-14T06:08:53;101690.18;;;7.63;100.00
63281;BME280;49406;51.044;3.766;2023-12-14T06:11:28;101694.26;;;7.60;100.00
63281;BME280;49406;51.044;3.766;2023-12-14T06:14:03;101693.45;;;7.52;100.00
63281;BME280;49406;51.044;3.766;2023-12-14T06:16:37;101694.16;;;7.47;100.00
63281;BME280;49406;51.044;3.766;2023-12-14T06:19:12;101698.42;;;7.44;100.00
63281;BME280;49406;51.044;3.766;2023-12-14T06:21:47;101709.69;;;7.43;100.00
63281;BME280;49406;51.044;3.766;2023-12-14T06:24:21;101715.31;;;7.40;100.00
63281;BME280;49406;51.044;3.766;2023-12-14T06:26:56;101723.59;;;7.38;100.00
63281;BME280;49406;51.044;3.766;2023-12-14T06:29:30;101737.91;;;7.44;100.00
63281;BME280;49406;51.044;3.766;2023-12-14T06:32:06;101740.74;;;7.45;100.00
63281;BME280;49406;51.044;3.766;2023-12-14T06:34:40;101751.25;;;7.48;100.00
63281;BME280;49406;51.044;3.766;2023-12-14T06:37:15;101756.33;;;7.48;100.00
63281;BME280;49406;51.044;3.766;2023-12-14T06:39:50;101769.40;;;7.49;100.00
63281;BME280;49406;51.044;3.766;2023-12-14T06:42:24;101772.75;;;7.45;100.00
63281;BME280;49406;51.044;3.766;2023-12-14T06:45:01;101773.48;;;7.46;100.00
63281;BME280;49406;51.044;3.766;2023-12-14T06:47:36;101778.56;;;7.47;100.00
63281;BME280;49406;51.044;3.766;2023-12-14T06:50:11;101781.02;;;7.48;100.00
63281;BME280;49406;51.044;3.766;2023-12-14T06:52:47;101786.31;;;7.50;100.00
63281;BME280;49406;51.044;3.766;2023-12-14T06:55:21;101793.41;;;7.54;100.00
63281;BME280;49406;51.044;3.766;2023-12-14T06:57:56;101798.05;;;7.57;100.00
63281;BME280;49406;51.044;3.766;2023-12-14T07:00:30;101794.19;;;7.56;100.00
63281;BME280;49406;51.044;3.766;2023-12-14T07:03:05;101792.55;;;7.59;100.00
63281;BME280;49406;51.044;3.766;2023-12-14T07:05:40;101797.41;;;7.59;100.00
63281;BME280;49406;51.044;3.766;2023-12-14T07:08:15;101801.63;;;7.55;100.00
63281;BME280;49406;51.044;3.766;2023-12-14T07:10:49;101799.02;;;7.50;100.00
63281;BME280;49406;51.044;3.766;2023-12-14T07:13:24;101805.19;;;7.52;100.00
63281;BME280;49406;51.044;3.766;2023-12-14T07:15:58;101804.88;;;7.53;100.00
63281;BME280;49406;51.044;3.766;2023-12-14T07:18:31;101808.59;;;7.60;100.00
63281;BME280;49406;51.044;3.766;2023-12-14T07:21:07;101811.14;;;7.58;100.00
63281;BME280;49406;51.044;3.766;2023-12-14T07:23:42;101815.56;;;7.56;100.00
63281;BME280;49406;51.044;3.766;2023-12-14T07:26:16;101819.33;;;7.54;100.00
63281;BME280;49406;51.044;3.766;2023-12-14T07:28:53;101821.36;;;7.47;100.00
63281;BME280;49406;51.044;3.766;2023-12-14T07:31:27;101823.52;;;7.39;100.00
63281;BME280;49406;51.044;3.766;2023-12-14T07:34:02;101825.51;;;7.33;100.00
63281;BME280;49406;51.044;3.766;2023-12-14T07:36:36;101835.70;;;7.26;100.00
63281;BME280;49406;51.044;3.766;2023-12-14T07:39:11;101838.61;;;7.21;100.00
63281;BME280;49406;51.044;3.766;2023-12-14T07:41:46;101841.65;;;7.18;100.00
63281;BME280;49406;51.044;3.766;2023-12-14T07:44:20;101847.60;;;7.14;100.00
63281;BME280;49406;51.044;3.766;2023-12-14T07:46:55;101853.83;;;7.09;100.00
63281;BME280;49406;51.044;3.766;2023-12-14T07:49:30;101863.99;;;7.06;100.00
63281;BME280;49406;51.044;3.766;2023-12-14T07:52:05;101875.65;;;7.06;100.00
63281;BME280;49406;51.044;3.766;2023-12-14T07:54:40;101880.13;;;7.05;100.00
63281;BME280;49406;51.044;3.766;2023-12-14T07:57:15;101885.62;;;7.08;100.00
63281;BME280;49406;51.044;3.766;2023-12-14T07:59:49;101890.05;;;7.05;100.00
63281;BME280;49406;51.044;3.766;2023-12-14T08:02:24;101894.14;;;7.17;100.00
63281;BME280;49406;51.044;3.766;2023-12-14T08:04:58;101900.43;;;7.31;100.00
63281;BME280;49406;51.044;3.766;2023-12-14T08:07:31;101905.27;;;7.39;100.00
63281;BME280;49406;51.044;3.766;2023-12-14T08:10:07;101911.36;;;7.48;100.00
63281;BME280;49406;51.044;3.766;2023-12-14T08:12:42;101912.64;;;7.59;100.00
63281;BME280;49406;51.044;3.766;2023-12-14T08:15:17;101917.73;;;7.66;100.00
63281;BME280;49406;51.044;3.766;2023-12-14T08:17:51;101922.19;;;7.68;100.00
63281;BME280;49406;51.044;3.766;2023-12-14T08:20:26;101920.55;;;7.71;100.00
63281;BME280;49406;51.044;3.766;2023-12-14T08:23:00;101926.45;;;7.75;100.00
63281;BME280;49406;51.044;3.766;2023-12-14T08:25:35;101924.17;;;7.74;100.00
63281;BME280;49406;51.044;3.766;2023-12-14T08:28:10;101932.73;;;7.80;100.00
63281;BME280;49406;51.044;3.766;2023-12-14T08:30:44;101928.00;;;7.89;100.00
63281;BME280;49406;51.044;3.766;2023-12-14T08:33:19;101933.11;;;7.86;100.00
63281;BME280;49406;51.044;3.766;2023-12-14T08:35:54;101934.52;;;7.90;100.00
63281;BME280;49406;51.044;3.766;2023-12-14T08:38:28;101938.38;;;7.96;100.00
63281;BME280;49406;51.044;3.766;2023-12-14T08:41:03;101943.73;;;8.00;100.00
63281;BME280;49406;51.044;3.766;2023-12-14T08:43:38;101944.88;;;8.03;100.00
63281;BME280;49406;51.044;3.766;2023-12-14T08:46:12;101957.33;;;8.05;100.00
63281;BME280;49406;51.044;3.766;2023-12-14T08:48:47;101961.71;;;8.05;100.00
63281;BME280;49406;51.044;3.766;2023-12-14T08:51:22;101971.89;;;8.12;100.00
63281;BME280;49406;51.044;3.766;2023-12-14T08:53:59;101973.52;;;8.20;100.00
63281;BME280;49406;51.044;3.766;2023-12-14T08:56:33;101979.84;;;8.25;100.00
63281;BME280;49406;51.044;3.766;2023-12-14T08:59:08;101977.36;;;8.24;100.00
63281;BME280;49406;51.044;3.766;2023-12-14T09:01:43;101982.23;;;8.24;100.00
63281;BME280;49406;51.044;3.766;2023-12-14T09:04:17;101985.34;;;8.28;100.00
63281;BME280;49406;51.044;3.766;2023-12-14T09:06:52;101985.51;;;8.28;100.00
63281;BME280;49406;51.044;3.766;2023-12-14T09:09:27;101989.16;;;8.23;100.00
63281;BME280;49406;51.044;3.766;2023-12-14T09:12:01;101989.96;;;8.26;100.00
63281;BME280;49406;51.044;3.766;2023-12-14T09:14:36;101994.16;;;8.27;100.00
63281;BME280;49406;51.044;3.766;2023-12-14T09:17:11;102000.48;;;8.32;100.00
63281;BME280;49406;51.044;3.766;2023-12-14T09:19:45;102006.35;;;8.35;100.00
63281;BME280;49406;51.044;3.766;2023-12-14T09:22:20;102011.07;;;8.36;100.00
63281;BME280;49406;51.044;3.766;2023-12-14T09:24:54;102012.85;;;8.37;100.00
63281;BME280;49406;51.044;3.766;2023-12-14T09:27:29;102017.39;;;8.37;100.00
63281;BME280;49406;51.044;3.766;2023-12-14T09:30:05;102016.22;;;8.38;100.00
63281;BME280;49406;51.044;3.766;2023-12-14T09:32:39;102013.86;;;8.40;100.00
63281;BME280;49406;51.044;3.766;2023-12-14T09:35:14;102015.74;;;8.44;100.00
63281;BME280;49406;51.044;3.766;2023-12-14T09:37:48;102016.73;;;8.48;100.00
63281;BME280;49406;51.044;3.766;2023-12-14T09:40:23;102022.53;;;8.54;100.00
63281;BME280;49406;51.044;3.766;2023-12-14T09:42:58;102023.21;;;8.63;100.00
63281;BME280;49406;51.044;3.766;2023-12-14T09:45:33;102032.77;;;8.68;100.00
63281;BME280;49406;51.044;3.766;2023-12-14T09:48:07;102038.73;;;8.69;100.00
63281;BME280;49406;51.044;3.766;2023-12-14T09:50:45;102043.61;;;8.68;100.00
63281;BME280;49406;51.044;3.766;2023-12-14T09:53:20;102050.05;;;8.63;100.00
63281;BME280;49406;51.044;3.766;2023-12-14T09:55:54;102057.10;;;8.60;100.00
63281;BME280;49406;51.044;3.766;2023-12-14T09:58:33;102065.30;;;8.60;100.00
63281;BME280;49406;51.044;3.766;2023-12-14T10:01:25;102068.64;;;8.56;100.00
63281;BME280;49406;51.044;3.766;2023-12-14T10:04:10;102070.33;;;8.45;100.00
63281;BME280;49406;51.044;3.766;2023-12-14T10:06:46;102074.59;;;8.38;100.00
63281;BME280;49406;51.044;3.766;2023-12-14T10:09:25;102074.75;;;8.29;100.00
63281;BME280;49406;51.044;3.766;2023-12-14T10:12:05;102085.77;;;8.22;100.00
63281;BME280;49406;51.044;3.766;2023-12-14T10:14:40;102094.37;;;8.13;100.00
63281;BME280;49406;51.044;3.766;2023-12-14T10:17:19;102103.89;;;8.11;100.00
63281;BME280;49406;51.044;3.766;2023-12-14T10:19:53;102104.68;;;8.09;100.00
63281;BME280;49406;51.044;3.766;2023-12-14T10:22:29;102102.40;;;8.05;100.00
63281;BME280;49406;51.044;3.766;2023-12-14T10:25:06;102100.96;;;7.99;100.00
63281;BME280;49406;51.044;3.766;2023-12-14T10:27:43;102105.16;;;7.95;100.00
63281;BME280;49406;51.044;3.766;2023-12-14T10:30:20;102109.30;;;7.94;100.00
63281;BME280;49406;51.044;3.766;2023-12-14T10:32:55;102109.08;;;7.93;100.00
63281;BME280;49406;51.044;3.766;2023-12-14T10:35:29;102116.43;;;7.94;100.00
63281;BME280;49406;51.044;3.766;2023-12-14T10:38:05;102111.87;;;7.93;100.00
63281;BME280;49406;51.044;3.766;2023-12-14T10:40:40;102116.02;;;7.89;100.00
63281;BME280;49406;51.044;3.766;2023-12-14T10:43:18;102114.86;;;7.89;100.00
63281;BME280;49406;51.044;3.766;2023-12-14T10:45:53;102118.48;;;8.02;100.00
63281;BME280;49406;51.044;3.766;2023-12-14T10:48:28;102121.85;;;8.17;100.00
63281;BME280;49406;51.044;3.766;2023-12-14T10:51:04;102123.25;;;8.22;100.00
63281;BME280;49406;51.044;3.766;2023-12-14T10:53:40;102130.72;;;8.25;100.00
63281;BME280;49406;51.044;3.766;2023-12-14T10:56:18;102138.00;;;8.29;100.00
63281;BME280;49406;51.044;3.766;2023-12-14T10:58:55;102141.20;;;8.30;100.00
63281;BME280;49406;51.044;3.766;2023-12-14T11:01:29;102139.70;;;8.37;100.00
63281;BME280;49406;51.044;3.766;2023-12-14T11:04:08;102137.70;;;8.48;100.00
63281;BME280;49406;51.044;3.766;2023-12-14T11:06:47;102136.60;;;8.47;100.00
63281;BME280;49406;51.044;3.766;2023-12-14T11:09:23;102133.64;;;8.47;100.00
63281;BME280;49406;51.044;3.766;2023-12-14T11:11:59;102136.08;;;8.47;100.00
63281;BME280;49406;51.044;3.766;2023-12-14T11:14:34;102135.27;;;8.48;100.00
63281;BME280;49406;51.044;3.766;2023-12-14T11:17:11;102138.41;;;8.53;100.00
63281;BME280;49406;51.044;3.766;2023-12-14T11:19:46;102137.85;;;8.57;100.00
63281;BME280;49406;51.044;3.766;2023-12-14T11:22:28;102138.09;;;8.58;100.00
63281;BME280;49406;51.044;3.766;2023-12-14T11:25:05;102145.22;;;8.63;100.00
63281;BME280;49406;51.044;3.766;2023-12-14T11:27:44;102145.42;;;8.68;100.00
63281;BME280;49406;51.044;3.766;2023-12-14T11:30:16;102150.63;;;8.77;100.00
63281;BME280;49406;51.044;3.766;2023-12-14T11:32:49;102150.96;;;8.86;100.00
63281;BME280;49406;51.044;3.766;2023-12-14T11:35:24;102153.52;;;8.94;100.00
63281;BME280;49406;51.044;3.766;2023-12-14T11:37:59;102153.52;;;8.94;100.00
63281;BME280;49406;51.044;3.766;2023-12-14T11:40:36;102153.13;;;8.98;100.00
63281;BME280;49406;51.044;3.766;2023-12-14T11:43:10;102155.89;;;9.07;100.00
63281;BME280;49406;51.044;3.766;2023-12-14T11:45:45;102163.34;;;9.15;100.00
63281;BME280;49406;51.044;3.766;2023-12-14T11:48:20;102164.38;;;9.21;100.00
63281;BME280;49406;51.044;3.766;2023-12-14T11:50:55;102169.82;;;9.21;100.00
63281;BME280;49406;51.044;3.766;2023-12-14T11:53:31;102165.69;;;9.13;100.00
63281;BME280;49406;51.044;3.766;2023-12-14T11:56:06;102172.38;;;9.14;100.00
63281;BME280;49406;51.044;3.766;2023-12-14T11:58:43;102173.52;;;9.17;100.00
63281;BME280;49406;51.044;3.766;2023-12-14T12:01:19;102174.64;;;9.19;100.00
63281;BME280;49406;51.044;3.766;2023-12-14T12:03:54;102181.51;;;9.16;100.00
63281;BME280;49406;51.044;3.766;2023-12-14T12:06:29;102185.98;;;9.15;100.00
63281;BME280;49406;51.044;3.766;2023-12-14T12:09:03;102185.82;;;9.10;100.00
63281;BME280;49406;51.044;3.766;2023-12-14T12:11:42;102181.77;;;9.04;100.00
63281;BME280;49406;51.044;3.766;2023-12-14T12:14:18;102172.73;;;8.95;100.00
63281;BME280;49406;51.044;3.766;2023-12-14T12:16:53;102178.83;;;8.94;100.00
63281;BME280;49406;51.044;3.766;2023-12-14T12:19:28;102178.90;;;9.02;100.00
63281;BME280;49406;51.044;3.766;2023-12-14T12:22:04;102174.17;;;9.06;100.00
63281;BME280;49406;51.044;3.766;2023-12-14T12:24:39;102175.50;;;9.09;100.00
63281;BME280;49406;51.044;3.766;2023-12-14T12:27:14;102172.08;;;9.11;100.00
63281;BME280;49406;51.044;3.766;2023-12-14T12:29:48;102175.30;;;9.13;100.00
63281;BME280;49406;51.044;3.766;2023-12-14T12:32:26;102177.65;;;9.16;100.00
63281;BME280;49406;51.044;3.766;2023-12-14T12:35:01;102181.05;;;9.13;100.00
63281;BME280;49406;51.044;3.766;2023-12-14T12:37:36;102180.89;;;9.14;100.00
63281;BME280;49406;51.044;3.766;2023-12-14T12:40:12;102185.83;;;9.20;100.00
63281;BME280;49406;51.044;3.766;2023-12-14T12:42:49;102193.89;;;9.21;100.00
63281;BME280;49406;51.044;3.766;2023-12-14T12:45:24;102192.22;;;9.18;100.00
63281;BME280;49406;51.044;3.766;2023-12-14T12:48:00;102189.79;;;9.19;100.00
63281;BME280;49406;51.044;3.766;2023-12-14T12:50:37;102189.87;;;9.16;100.00
63281;BME280;49406;51.044;3.766;2023-12-14T12:53:11;102189.95;;;9.08;100.00
63281;BME280;49406;51.044;3.766;2023-12-14T12:55:46;102191.48;;;9.02;100.00
63281;BME280;49406;51.044;3.766;2023-12-14T12:58:20;102192.98;;;9.00;100.00
63281;BME280;49406;51.044;3.766;2023-12-14T13:00:55;102193.12;;;8.99;100.00
63281;BME280;49406;51.044;3.766;2023-12-14T13:03:30;102188.26;;;9.05;100.00
63281;BME280;49406;51.044;3.766;2023-12-14T13:06:06;102191.32;;;9.07;100.00
63281;BME280;49406;51.044;3.766;2023-12-14T13:08:41;102197.44;;;9.13;100.00
63281;BME280;49406;51.044;3.766;2023-12-14T13:11:16;102193.17;;;9.10;100.00
63281;BME280;49406;51.044;3.766;2023-12-14T13:13:50;102197.85;;;9.09;100.00
63281;BME280;49406;51.044;3.766;2023-12-14T13:16:25;102204.90;;;9.02;100.00
63281;BME280;49406;51.044;3.766;2023-12-14T13:19:00;102213.15;;;8.98;100.00
63281;BME280;49406;51.044;3.766;2023-12-14T13:21:34;102213.36;;;9.04;100.00
63281;BME280;49406;51.044;3.766;2023-12-14T13:24:09;102213.77;;;9.10;100.00
63281;BME280;49406;51.044;3.766;2023-12-14T13:26:44;102215.11;;;9.14;100.00
63281;BME280;49406;51.044;3.766;2023-12-14T13:29:19;102212.07;;;9.17;100.00
63281;BME280;49406;51.044;3.766;2023-12-14T13:31:54;102214.48;;;9.16;100.00